createdAt,value
2019-01-13T00:00:43.231Z,4.13
2019-01-13T00:03:11.520Z,4.80
2019-01-13T00:05:39.701Z,4.83
2019-01-13T00:08:08.043Z,5.33
2019-01-13T00:10:36.126Z,4.27
2019-01-13T00:13:04.854Z,4.10
2019-01-13T00:15:32.929Z,4.20
2019-01-13T00:18:01.162Z,3.40
2019-01-13T00:20:29.345Z,5.23
2019-01-13T00:22:57.485Z,4.23
2019-01-13T00:25:25.573Z,4.13
2019-01-13T00:27:53.906Z,6.13
2019-01-13T00:30:22.287Z,4.60
2019-01-13T00:32:50.400Z,2.90
2019-01-13T00:35:18.590Z,3.77
2019-01-13T00:37:47.228Z,3.57
2019-01-13T00:40:15.597Z,3.13
2019-01-13T00:42:43.968Z,4.43
2019-01-13T00:45:12.327Z,4.87
2019-01-13T00:47:40.409Z,4.03
2019-01-13T00:50:11.034Z,4.67
2019-01-13T00:52:39.233Z,3.10
2019-01-13T00:55:08.001Z,3.20
2019-01-13T00:57:36.759Z,3.00
2019-01-13T01:00:08.931Z,3.23
2019-01-13T01:02:37.114Z,2.90
2019-01-13T01:05:06.839Z,2.73
2019-01-13T01:07:35.147Z,2.13
2019-01-13T01:10:04.809Z,2.87
2019-01-13T01:12:32.907Z,2.47
2019-01-13T01:15:01.165Z,2.10
2019-01-13T01:17:29.231Z,6.67
2019-01-13T01:19:57.461Z,4.70
2019-01-13T01:22:25.530Z,5.03
2019-01-13T01:24:53.686Z,4.57
2019-01-13T01:27:21.894Z,3.73
2019-01-13T01:29:50.013Z,4.37
2019-01-13T01:32:18.617Z,3.83
2019-01-13T01:34:46.902Z,3.67
2019-01-13T01:37:14.966Z,1.80
2019-01-13T01:39:43.098Z,2.17
2019-01-13T01:42:11.637Z,2.07
2019-01-13T01:44:39.864Z,2.17
2019-01-13T01:47:08.322Z,2.00
2019-01-13T01:49:36.458Z,2.70
2019-01-13T01:52:04.837Z,1.20
2019-01-13T01:54:32.952Z,1.20
2019-01-13T01:57:01.137Z,1.60
2019-01-13T01:59:29.247Z,1.27
2019-01-13T02:01:57.530Z,2.60
2019-01-13T02:04:25.638Z,1.50
2019-01-13T02:06:53.853Z,1.53
2019-01-13T02:09:24.960Z,1.50
2019-01-13T02:11:53.101Z,1.20
2019-01-13T02:14:21.165Z,2.47
2019-01-13T02:16:49.302Z,1.40
2019-01-13T02:19:17.482Z,1.00
2019-01-13T02:21:46.260Z,1.50
2019-01-13T02:24:14.325Z,2.30
2019-01-13T02:26:42.457Z,1.10
2019-01-13T02:29:10.526Z,1.60
2019-01-13T02:31:38.663Z,1.57
2019-01-13T02:34:07.251Z,1.03
2019-01-13T02:36:35.389Z,1.40
2019-01-13T02:39:06.183Z,1.87
2019-01-13T02:41:34.506Z,1.33
2019-01-13T02:44:02.685Z,2.13
2019-01-13T02:46:30.817Z,1.70
2019-01-13T02:48:59.341Z,1.00
2019-01-13T02:51:28.396Z,1.10
2019-01-13T02:53:56.939Z,1.40
2019-01-13T02:56:25.074Z,0.60
2019-01-13T02:58:53.150Z,1.40
2019-01-13T03:01:21.277Z,0.67
2019-01-13T03:03:49.689Z,1.27
2019-01-13T03:06:18.282Z,0.87
2019-01-13T03:08:46.357Z,2.50
2019-01-13T03:11:14.471Z,1.33
2019-01-13T03:13:42.662Z,1.90
2019-01-13T03:16:10.968Z,1.27
2019-01-13T03:18:39.850Z,1.40
2019-01-13T03:21:08.146Z,0.83
2019-01-13T03:23:36.669Z,0.80
2019-01-13T03:26:04.948Z,0.60
2019-01-13T03:28:33.138Z,1.07
2019-01-13T03:31:11.327Z,1.13
2019-01-13T03:33:31.340Z,0.80
2019-01-13T03:35:59.733Z,1.23
2019-01-13T03:38:27.920Z,1.03
2019-01-13T03:40:56.010Z,0.50
2019-01-13T03:43:24.260Z,0.70
2019-01-13T03:45:52.434Z,0.50
2019-01-13T03:48:20.729Z,0.60
2019-01-13T03:50:48.925Z,0.70
2019-01-13T03:53:17.009Z,0.90
2019-01-13T03:55:45.193Z,0.30
2019-01-13T03:58:13.876Z,0.60
2019-01-13T04:00:41.969Z,1.20
2019-01-13T04:03:10.248Z,0.60
2019-01-13T04:05:38.457Z,0.43
2019-01-13T04:08:06.738Z,1.00
2019-01-13T04:10:34.857Z,0.70
2019-01-13T04:13:03.044Z,0.60
2019-01-13T04:15:56.332Z,0.37
2019-01-13T04:18:24.426Z,0.87
2019-01-13T04:20:52.980Z,0.80
2019-01-13T04:23:21.464Z,0.50
2019-01-13T04:25:49.585Z,0.50
2019-01-13T04:28:17.764Z,0.30
2019-01-13T04:30:45.977Z,0.40
2019-01-13T04:33:14.110Z,0.40
2019-01-13T04:35:42.486Z,0.80
2019-01-13T04:38:10.761Z,0.63
2019-01-13T04:40:39.012Z,1.00
2019-01-13T04:43:07.705Z,0.97
2019-01-13T04:45:36.041Z,0.93
2019-01-13T04:48:04.204Z,1.10
2019-01-13T04:50:32.487Z,1.07
2019-01-13T04:53:01.166Z,0.50
2019-01-13T04:55:29.477Z,0.97
2019-01-13T04:57:57.564Z,0.70
2019-01-13T05:00:25.893Z,0.40
2019-01-13T05:02:54.079Z,0.40
2019-01-13T05:05:22.244Z,1.00
2019-01-13T05:07:50.787Z,0.60
2019-01-13T05:10:19.796Z,0.87
2019-01-13T05:12:47.935Z,0.60
2019-01-13T05:15:16.705Z,0.40
2019-01-13T05:17:45.085Z,0.23
2019-01-13T05:20:15.157Z,0.50
2019-01-13T05:22:44.272Z,2.37
2019-01-13T05:25:12.551Z,0.50
2019-01-13T05:27:40.682Z,0.50
2019-01-13T05:30:22.505Z,1.00
2019-01-13T05:32:51.121Z,1.33
2019-01-13T05:35:19.732Z,0.83
2019-01-13T05:37:48.000Z,1.07
2019-01-13T05:40:18.064Z,1.40
2019-01-13T05:42:46.820Z,2.03
2019-01-13T05:45:16.457Z,0.60
2019-01-13T05:47:45.022Z,0.83
2019-01-13T05:50:14.740Z,0.80
2019-01-13T05:52:44.111Z,1.53
2019-01-13T05:55:12.406Z,1.10
2019-01-13T05:57:40.625Z,0.83
2019-01-13T06:00:21.121Z,0.70
2019-01-13T06:02:49.345Z,0.43
2019-01-13T06:05:17.619Z,0.80
2019-01-13T06:07:45.849Z,1.87
2019-01-13T06:10:15.292Z,0.80
2019-01-13T06:12:43.681Z,0.60
2019-01-13T06:15:14.190Z,0.77
2019-01-13T06:17:42.437Z,0.80
2019-01-13T06:20:15.885Z,0.90
2019-01-13T06:22:44.012Z,0.37
2019-01-13T06:25:12.310Z,0.33
2019-01-13T06:27:40.641Z,0.40
2019-01-13T06:30:11.936Z,0.47
2019-01-13T06:32:40.060Z,0.73
2019-01-13T06:35:10.169Z,4.23
2019-01-13T06:37:38.401Z,1.67
2019-01-13T06:40:08.690Z,2.10
2019-01-13T06:42:36.917Z,3.23
2019-01-13T06:45:07.532Z,2.37
2019-01-13T06:47:35.669Z,1.77
2019-01-13T06:50:04.764Z,2.13
2019-01-13T06:52:33.242Z,1.43
2019-01-13T06:55:01.331Z,0.77
2019-01-13T06:57:29.495Z,1.50
2019-01-13T06:59:58.014Z,1.27
2019-01-13T07:02:26.237Z,1.20
2019-01-13T07:04:54.324Z,0.83
2019-01-13T07:07:24.666Z,0.80
2019-01-13T07:09:52.752Z,1.33
2019-01-13T07:12:20.892Z,0.60
2019-01-13T07:14:48.976Z,3.13
2019-01-13T07:17:17.122Z,6.50
2019-01-13T07:19:45.358Z,1.93
2019-01-13T07:22:13.582Z,1.60
2019-01-13T07:24:41.660Z,1.00
2019-01-13T07:27:09.921Z,0.80
2019-01-13T07:29:38.400Z,0.23
2019-01-13T07:32:10.783Z,1.33
2019-01-13T07:34:36.909Z,1.60
2019-01-13T07:37:05.147Z,0.27
2019-01-13T07:39:33.323Z,0.27
2019-01-13T07:42:01.450Z,0.30
2019-01-13T07:44:29.646Z,0.33
2019-01-13T07:46:57.850Z,0.43
2019-01-13T07:49:25.932Z,1.23
2019-01-13T07:51:54.016Z,0.30
2019-01-13T07:54:22.149Z,0.77
2019-01-13T07:56:50.319Z,2.03
2019-01-13T07:59:18.446Z,1.03
2019-01-13T08:01:46.593Z,2.03
2019-01-13T08:04:15.309Z,0.50
2019-01-13T08:06:43.504Z,1.57
2019-01-13T08:09:12.040Z,1.50
2019-01-13T08:11:40.120Z,0.90
2019-01-13T08:14:08.361Z,0.73
2019-01-13T08:16:36.973Z,1.53
2019-01-13T08:19:05.319Z,3.13
2019-01-13T08:21:33.490Z,2.30
2019-01-13T08:24:01.708Z,1.30
2019-01-13T08:26:30.189Z,2.00
2019-01-13T08:28:58.327Z,2.70
2019-01-13T08:31:26.389Z,1.40
2019-01-13T08:33:55.290Z,1.63
2019-01-13T08:36:23.636Z,1.67
2019-01-13T08:38:51.929Z,1.60
2019-01-13T08:41:20.289Z,2.20
2019-01-13T08:43:49.606Z,1.20
2019-01-13T08:46:18.528Z,1.30
2019-01-13T08:48:47.428Z,2.23
2019-01-13T08:51:15.955Z,2.20
2019-01-13T08:53:44.347Z,3.27
2019-01-13T08:56:13.097Z,2.27
2019-01-13T08:58:41.616Z,5.93
2019-01-13T09:01:10.342Z,5.53
2019-01-13T09:03:38.725Z,4.33
2019-01-13T09:06:07.148Z,3.77
2019-01-13T09:08:35.904Z,6.13
2019-01-13T09:11:04.332Z,2.07
2019-01-13T09:13:33.040Z,3.60
2019-01-13T09:16:01.676Z,3.20
2019-01-13T09:18:30.144Z,2.50
2019-01-13T09:20:58.963Z,0.20
2019-01-13T09:23:27.293Z,1.33
2019-01-13T09:25:55.708Z,1.93
2019-01-13T09:28:24.261Z,1.93
2019-01-13T09:30:53.200Z,2.63
2019-01-13T09:33:21.845Z,6.47
2019-01-13T09:35:50.148Z,1.70
2019-01-13T09:38:18.540Z,2.10
2019-01-13T09:40:46.672Z,1.20
2019-01-13T09:43:15.042Z,0.77
2019-01-13T09:45:43.156Z,0.60
2019-01-13T09:48:11.420Z,0.70
2019-01-13T09:50:39.816Z,0.80
2019-01-13T09:53:07.880Z,0.30
2019-01-13T09:55:36.084Z,0.60
2019-01-13T09:58:04.352Z,0.37
2019-01-13T10:00:39.182Z,0.10
2019-01-13T10:03:08.564Z,0.37
2019-01-13T10:05:37.422Z,0.10
2019-01-13T10:08:05.724Z,0.20
2019-01-13T10:10:33.946Z,0.10
2019-01-13T10:13:02.012Z,2.00
2019-01-13T10:15:30.223Z,0.20
2019-01-13T10:17:58.386Z,0.50
2019-01-13T10:20:26.488Z,1.00
2019-01-13T10:22:54.768Z,0.37
2019-01-13T10:25:23.624Z,0.20
2019-01-13T10:27:51.803Z,0.13
2019-01-13T10:30:26.933Z,2.13
2019-01-13T10:32:55.184Z,0.43
2019-01-13T10:35:23.949Z,1.00
2019-01-13T10:37:52.909Z,3.67
2019-01-13T10:40:22.694Z,0.77
2019-01-13T10:42:51.077Z,0.50
2019-01-13T10:45:19.372Z,1.77
2019-01-13T10:47:47.445Z,2.60
2019-01-13T10:50:20.132Z,0.70
2019-01-13T10:52:48.350Z,0.70
2019-01-13T10:55:17.837Z,0.33
2019-01-13T10:57:46.057Z,1.23
2019-01-13T11:00:19.795Z,0.50
2019-01-13T11:02:47.921Z,2.10
2019-01-13T11:05:16.289Z,0.10
2019-01-13T11:07:44.713Z,0.13
2019-01-13T11:10:13.829Z,0.20
2019-01-13T11:12:42.052Z,0.40
2019-01-13T11:15:10.594Z,1.30
2019-01-13T11:17:38.911Z,0.83
2019-01-13T11:20:11.035Z,0.03
2019-01-13T11:22:39.257Z,0.00
2019-01-13T11:25:07.683Z,0.10
2019-01-13T11:27:35.793Z,0.17
2019-01-13T11:30:05.152Z,0.10
2019-01-13T11:32:33.271Z,0.43
2019-01-13T11:35:01.385Z,0.27
2019-01-13T11:37:31.273Z,0.33
2019-01-13T11:39:59.723Z,0.33
2019-01-13T11:42:27.849Z,0.00
2019-01-13T11:44:55.912Z,0.20
2019-01-13T11:47:24.612Z,0.10
2019-01-13T11:49:52.728Z,0.60
2019-01-13T11:52:20.893Z,0.70
2019-01-13T11:54:48.957Z,0.57
2019-01-13T11:57:17.063Z,0.20
2019-01-13T11:59:45.129Z,0.37
2019-01-13T12:02:13.345Z,0.00
2019-01-13T12:04:41.405Z,0.30
2019-01-13T12:07:09.521Z,0.40
2019-01-13T12:09:37.588Z,0.10
2019-01-13T12:12:06.159Z,0.33
2019-01-13T12:14:34.234Z,1.70
2019-01-13T12:17:02.357Z,0.30
2019-01-13T12:19:30.424Z,0.37
2019-01-13T12:21:58.533Z,0.30
2019-01-13T12:24:26.596Z,0.30
2019-01-13T12:26:54.758Z,0.10
2019-01-13T12:29:22.964Z,0.10
2019-01-13T12:31:51.034Z,0.17
2019-01-13T12:34:19.253Z,0.00
2019-01-13T12:36:47.609Z,0.10
2019-01-13T12:39:16.001Z,0.20
2019-01-13T12:41:44.065Z,0.23
2019-01-13T12:44:12.290Z,0.13
2019-01-13T12:46:40.562Z,0.10
2019-01-13T12:49:08.668Z,0.20
2019-01-13T12:51:36.833Z,0.30
2019-01-13T12:54:05.661Z,0.30
2019-01-13T12:56:33.849Z,0.20
2019-01-13T12:59:01.961Z,0.10
2019-01-13T13:01:30.030Z,0.10
2019-01-13T13:03:58.148Z,0.37
2019-01-13T13:06:26.313Z,0.40
2019-01-13T13:08:54.430Z,1.37
2019-01-13T13:11:22.509Z,0.90
2019-01-13T13:13:50.730Z,0.20
2019-01-13T13:16:18.808Z,1.13
2019-01-13T13:18:46.921Z,0.43
2019-01-13T13:21:15.090Z,6.30
2019-01-13T13:23:43.232Z,3.40
2019-01-13T13:26:12.241Z,11.63
2019-01-13T13:28:40.512Z,1.70
2019-01-13T13:31:08.614Z,5.97
2019-01-13T13:33:38.936Z,1.20
2019-01-13T13:36:06.821Z,1.10
2019-01-13T13:38:34.997Z,0.93
2019-01-13T13:41:03.252Z,0.40
2019-01-13T13:43:33.537Z,0.97
2019-01-13T13:46:02.328Z,1.17
2019-01-13T13:48:30.495Z,0.70
2019-01-13T13:50:58.820Z,0.20
2019-01-13T13:53:26.976Z,0.70
2019-01-13T13:55:55.195Z,0.33
2019-01-13T13:58:23.456Z,0.50
2019-01-13T14:00:52.673Z,0.37
2019-01-13T14:03:21.193Z,0.73
2019-01-13T14:05:49.417Z,0.90
2019-01-13T14:08:17.477Z,0.23
2019-01-13T14:10:45.600Z,0.10
2019-01-13T14:13:13.652Z,0.20
2019-01-13T14:15:41.979Z,0.00
2019-01-13T14:18:10.251Z,0.50
2019-01-13T14:20:38.465Z,0.10
2019-01-13T14:23:06.732Z,0.30
2019-01-13T14:25:35.509Z,0.57
2019-01-13T14:28:04.196Z,1.43
2019-01-13T14:30:32.422Z,0.50
2019-01-13T14:33:00.677Z,0.80
2019-01-13T14:35:28.905Z,1.43
2019-01-13T14:37:57.120Z,0.70
2019-01-13T14:40:26.332Z,0.70
2019-01-13T14:42:54.494Z,0.70
2019-01-13T14:45:25.054Z,0.37
2019-01-13T14:47:53.748Z,0.60
2019-01-13T14:50:28.472Z,0.07
2019-01-13T14:52:56.545Z,0.93
2019-01-13T14:55:25.412Z,0.30
2019-01-13T14:57:53.598Z,0.43
2019-01-13T15:00:27.429Z,0.20
2019-01-13T15:02:55.618Z,0.10
2019-01-13T15:05:23.834Z,0.20
2019-01-13T15:07:52.000Z,0.27
2019-01-13T15:10:20.946Z,0.30
2019-01-13T15:12:49.020Z,0.33
2019-01-13T15:15:17.340Z,0.50
2019-01-13T15:17:45.405Z,1.63
2019-01-13T15:20:18.760Z,2.07
2019-01-13T15:22:51.503Z,9.50
2019-01-13T15:25:22.453Z,3.97
2019-01-13T15:27:50.721Z,4.17
2019-01-13T15:30:21.879Z,2.00
2019-01-13T15:32:50.056Z,3.13
2019-01-13T15:35:18.577Z,2.20
2019-01-13T15:37:47.140Z,1.67
2019-01-13T15:40:17.029Z,0.37
2019-01-13T15:42:45.845Z,0.50
2019-01-13T15:45:14.836Z,0.73
2019-01-13T15:47:43.409Z,1.93
2019-01-13T15:50:20.307Z,1.50
2019-01-13T15:52:49.052Z,1.13
2019-01-13T15:55:17.487Z,0.90
2019-01-13T15:57:45.860Z,0.60
2019-01-13T16:00:22.097Z,0.50
2019-01-13T16:02:50.416Z,0.70
2019-01-13T16:05:18.592Z,0.93
2019-01-13T16:07:47.304Z,0.40
2019-01-13T16:10:17.308Z,0.40
2019-01-13T16:12:46.092Z,0.77
2019-01-13T16:15:14.552Z,0.90
2019-01-13T16:17:42.820Z,0.27
2019-01-13T16:20:16.837Z,0.30
2019-01-13T16:22:44.994Z,0.50
2019-01-13T16:25:13.213Z,0.90
2019-01-13T16:27:41.372Z,2.50
2019-01-13T16:30:13.177Z,0.87
2019-01-13T16:32:41.244Z,0.50
2019-01-13T16:35:09.569Z,1.27
2019-01-13T16:37:37.689Z,0.40
2019-01-13T16:40:09.248Z,0.43
2019-01-13T16:42:37.317Z,0.40
2019-01-13T16:45:06.932Z,2.10
2019-01-13T16:47:35.565Z,0.70
2019-01-13T16:50:06.272Z,2.63
2019-01-13T16:52:34.436Z,2.27
2019-01-13T16:55:03.561Z,0.60
2019-01-13T16:57:32.576Z,0.73
2019-01-13T17:00:00.680Z,0.37
2019-01-13T17:02:33.089Z,1.13
2019-01-13T17:04:58.665Z,0.30
2019-01-13T17:07:29.565Z,0.17
2019-01-13T17:09:57.796Z,0.10
2019-01-13T17:12:25.931Z,0.63
2019-01-13T17:14:54.053Z,0.00
2019-01-13T17:17:22.241Z,0.20
2019-01-13T17:19:50.329Z,0.87
2019-01-13T17:22:18.459Z,0.00
2019-01-13T17:24:46.537Z,0.17
2019-01-13T17:27:15.053Z,0.10
2019-01-13T17:29:45.716Z,1.70
2019-01-13T17:32:13.842Z,0.13
2019-01-13T17:40:10.484Z,0.07
2019-01-13T17:42:38.725Z,0.10
2019-01-13T17:45:10.039Z,0.00
2019-01-13T17:47:38.295Z,0.40
2019-01-13T17:50:09.302Z,0.00
2019-01-13T17:52:37.456Z,0.00
2019-01-13T17:55:08.335Z,0.40
2019-01-13T17:57:37.195Z,0.17
2019-01-13T18:00:19.818Z,0.50
2019-01-13T18:02:47.944Z,0.13
2019-01-13T18:05:16.270Z,0.03
2019-01-13T18:07:44.485Z,0.03
2019-01-13T18:10:12.879Z,0.20
2019-01-13T18:12:41.014Z,0.53
2019-01-13T18:15:09.310Z,0.20
2019-01-13T18:17:37.650Z,0.10
2019-01-13T18:20:09.804Z,0.23
2019-01-13T18:22:37.968Z,3.83
2019-01-13T18:25:06.285Z,0.70
2019-01-13T18:27:34.429Z,0.60
2019-01-13T18:30:02.921Z,0.40
2019-01-13T18:32:31.175Z,0.10
2019-01-13T18:34:59.257Z,0.57
2019-01-13T18:37:27.386Z,0.20
2019-01-13T18:39:56.028Z,0.00
2019-01-13T18:42:33.242Z,0.63
2019-01-13T18:45:01.682Z,0.20
2019-01-13T18:47:30.137Z,0.10
2019-01-13T18:49:58.247Z,0.50
2019-01-13T18:52:26.410Z,0.00
2019-01-13T18:54:54.964Z,0.30
2019-01-13T18:57:23.129Z,2.00
2019-01-13T18:59:51.418Z,1.40
2019-01-13T19:02:19.600Z,1.10
2019-01-13T19:04:47.715Z,1.33
2019-01-13T19:07:22.353Z,0.20
2019-01-13T19:09:50.459Z,0.83
2019-01-13T19:12:18.718Z,0.90
2019-01-13T19:14:52.148Z,0.00
2019-01-13T19:17:27.369Z,1.30
2019-01-13T19:20:10.722Z,1.90
2019-01-13T19:22:40.488Z,0.77
2019-01-13T19:25:26.118Z,0.40
2019-01-13T19:27:54.293Z,0.10
2019-01-13T19:30:23.825Z,0.00
2019-01-13T19:32:51.961Z,0.10
2019-01-13T19:35:20.061Z,0.30
2019-01-13T19:37:49.216Z,0.20
2019-01-13T19:40:17.714Z,0.77
2019-01-13T19:42:46.269Z,0.17
2019-01-13T19:45:17.039Z,2.70
2019-01-13T19:47:48.890Z,0.50
2019-01-13T19:50:29.810Z,0.60
2019-01-13T19:53:10.736Z,0.27
2019-01-13T19:55:40.525Z,0.20
2019-01-13T19:58:09.381Z,0.77
2019-01-13T20:00:37.712Z,0.90
2019-01-13T20:03:06.818Z,0.13
2019-01-13T20:05:35.217Z,0.40
2019-01-13T20:08:03.678Z,0.10
2019-01-13T20:10:32.306Z,0.10
2019-01-13T20:13:00.587Z,0.00
2019-01-13T20:15:28.742Z,0.00
2019-01-13T20:17:57.510Z,0.30
2019-01-13T20:20:25.757Z,0.23
2019-01-13T20:22:53.948Z,0.57
2019-01-13T20:25:22.096Z,0.20
2019-01-13T20:27:50.297Z,0.50
2019-01-13T20:30:20.584Z,0.50
2019-01-13T20:32:48.945Z,1.13
2019-01-13T20:35:19.278Z,0.10
2019-01-13T20:37:47.289Z,0.67
2019-01-13T20:40:15.737Z,0.40
2019-01-13T20:43:22.842Z,0.50
2019-01-13T20:45:53.236Z,0.70
2019-01-13T20:48:21.600Z,0.20
2019-01-13T20:50:50.250Z,0.50
2019-01-13T20:53:18.481Z,0.60
2019-01-13T20:55:46.578Z,0.57
2019-01-13T20:58:14.962Z,1.17
2019-01-13T21:00:43.227Z,0.50
2019-01-13T21:03:11.494Z,0.50
2019-01-13T21:05:40.230Z,0.77
2019-01-13T21:08:08.627Z,0.17
2019-01-13T21:10:36.873Z,0.40
2019-01-13T21:13:05.365Z,0.33
2019-01-13T21:15:45.279Z,0.33
2019-01-13T21:18:27.525Z,0.10
2019-01-13T21:20:55.694Z,0.20
2019-01-13T21:23:28.221Z,0.10
2019-01-13T21:26:36.262Z,0.10
2019-01-13T21:29:08.218Z,0.10
2019-01-13T21:31:36.428Z,0.10
2019-01-13T21:34:05.227Z,0.57
2019-01-13T21:36:33.565Z,2.90
2019-01-13T21:39:07.991Z,0.30
2019-01-13T21:41:36.860Z,0.50
2019-01-13T21:44:17.897Z,0.50
2019-01-13T21:46:41.964Z,0.43
2019-01-13T21:49:10.165Z,0.60
2019-01-13T21:51:38.252Z,0.70
2019-01-13T21:54:10.917Z,1.73
2019-01-13T21:56:36.601Z,0.43
2019-01-13T21:59:04.920Z,0.37
2019-01-13T22:01:35.515Z,0.70
2019-01-13T22:04:03.237Z,0.47
2019-01-13T22:06:31.531Z,0.10
2019-01-13T22:09:00.321Z,0.20
2019-01-13T22:11:28.574Z,0.00
2019-01-13T22:13:56.956Z,0.30
2019-01-13T22:16:25.097Z,0.13
2019-01-13T22:18:53.182Z,0.07
2019-01-13T22:21:21.417Z,0.20
2019-01-13T22:23:49.496Z,0.30
2019-01-13T22:26:18.180Z,0.00
2019-01-13T22:28:46.431Z,0.00
2019-01-13T22:31:14.572Z,0.00
2019-01-13T22:33:42.652Z,0.10
2019-01-13T22:36:10.937Z,0.10
2019-01-13T22:38:39.137Z,0.10
2019-01-13T22:41:30.392Z,0.10
2019-01-13T22:43:58.473Z,0.03
2019-01-13T22:46:26.615Z,0.27
2019-01-13T22:48:54.693Z,0.00
2019-01-13T22:51:24.381Z,0.20
2019-01-13T22:53:52.536Z,0.10
2019-01-13T22:56:20.803Z,0.00
2019-01-13T22:58:48.895Z,0.10
2019-01-13T23:01:46.603Z,0.10
2019-01-13T23:04:19.003Z,0.00
2019-01-13T23:06:47.330Z,1.90
2019-01-13T23:09:15.752Z,0.67
2019-01-13T23:11:43.990Z,0.00
2019-01-13T23:14:12.187Z,0.00
2019-01-13T23:16:41.433Z,0.17
2019-01-13T23:19:09.643Z,0.00
2019-01-13T23:21:37.973Z,0.10
2019-01-13T23:24:06.314Z,0.10
2019-01-13T23:26:34.571Z,0.00
2019-01-13T23:29:02.859Z,0.00
2019-01-13T23:31:31.046Z,0.10
2019-01-13T23:33:59.185Z,0.27
2019-01-13T23:36:27.618Z,0.00
2019-01-13T23:38:55.856Z,0.10
2019-01-13T23:41:23.992Z,0.00
2019-01-13T23:43:52.381Z,0.00
2019-01-13T23:46:20.625Z,0.87
2019-01-13T23:48:48.776Z,0.00
2019-01-13T23:51:17.065Z,0.00
2019-01-13T23:53:45.301Z,0.00
2019-01-13T23:56:13.484Z,0.00
2019-01-13T23:58:41.725Z,0.10
